Time;durP1;ratioP1;P1;durP2;ratioP2;P2;SDS_P1;SDS_P2;PMS_P1;PMS_P2;Temp;Humidity;BMP_temperature;BMP_pressure;BME280_temperature;BME280_humidity;BME280_pressure;Samples;Min_cycle;Max_cycle;Signal;HPM_P1;HPM_P2
2024/01/04 00:01:20;;;;;;;1999.90;999.90;;;11.90;99.90;;;;;;5052060;28;20036;-78
2024/01/04 00:03:46;;;;;;;1999.90;999.90;;;11.80;99.90;;;;;;5034009;28;20029;-77
2024/01/04 00:06:11;;;;;;;1999.90;999.90;;;11.80;99.90;;;;;;5052266;28;20029;-78
2024/01/04 00:08:37;;;;;;;1999.90;999.90;;;11.80;99.90;;;;;;5052083;28;20049;-78
2024/01/04 00:11:06;;;;;;;1999.90;999.90;;;11.80;99.90;;;;;;5017754;28;20029;-79
2024/01/04 00:13:32;;;;;;;1999.90;999.90;;;11.80;99.90;;;;;;5030691;28;20377;-79
2024/01/04 00:15:58;;;;;;;1999.90;999.90;;;11.80;99.90;;;;;;5049053;28;20080;-79
2024/01/04 00:18:24;;;;;;;1999.90;999.90;;;11.80;99.90;;;;;;5054306;28;20056;-79
2024/01/04 00:20:50;;;;;;;1999.90;999.90;;;11.70;99.90;;;;;;5055017;28;20240;-78
2024/01/04 00:23:16;;;;;;;1999.90;999.90;;;11.70;99.90;;;;;;5055504;28;20422;-79
2024/01/04 00:25:42;;;;;;;1999.90;999.90;;;11.60;99.90;;;;;;5054330;28;20070;-78
2024/01/04 00:28:07;;;;;;;1999.90;999.90;;;11.50;99.90;;;;;;5047158;28;20029;-79
2024/01/04 00:30:33;;;;;;;1999.90;999.90;;;11.50;99.90;;;;;;5035637;28;20377;-79
2024/01/04 00:32:59;;;;;;;1999.90;999.90;;;11.50;99.90;;;;;;5050949;28;20436;-79
2024/01/04 00:35:25;;;;;;;1999.90;999.90;;;11.50;99.90;;;;;;5055258;28;20025;-78
2024/01/04 00:37:50;;;;;;;1999.90;999.90;;;11.60;99.90;;;;;;5054577;28;20029;-79
2024/01/04 00:40:16;;;;;;;1999.90;999.90;;;11.60;99.90;;;;;;5054762;28;20029;-79
2024/01/04 00:42:42;;;;;;;1999.90;999.90;;;11.50;99.90;;;;;;5055058;28;20029;-79
2024/01/04 00:45:07;;;;;;;1999.90;999.90;;;11.50;99.90;;;;;;5055012;28;20116;-79
2024/01/04 00:47:33;;;;;;;1999.90;999.90;;;11.50;99.90;;;;;;5036305;28;20025;-79
2024/01/04 00:49:59;;;;;;;1999.90;999.90;;;11.50;99.90;;;;;;5054255;28;20025;-79
2024/01/04 00:52:24;;;;;;;1999.90;999.90;;;11.50;99.90;;;;;;5055006;28;20029;-79
2024/01/04 00:54:50;;;;;;;1999.90;999.90;;;11.40;99.90;;;;;;5054842;28;20364;-78
2024/01/04 00:57:16;;;;;;;1999.90;999.90;;;11.40;99.90;;;;;;5054734;28;20032;-79
2024/01/04 00:59:41;;;;;;;1999.90;999.90;;;11.40;99.90;;;;;;5054481;28;20372;-79
2024/01/04 01:02:07;;;;;;;1999.90;999.90;;;11.50;99.90;;;;;;5054590;28;20025;-78
2024/01/04 01:04:33;;;;;;;1999.90;999.90;;;11.40;99.90;;;;;;5054624;28;20086;-79
2024/01/04 01:06:58;;;;;;;1999.90;999.90;;;11.40;99.90;;;;;;5053910;28;20533;-79
2024/01/04 01:09:24;;;;;;;1999.90;999.90;;;11.40;99.90;;;;;;5054503;28;20052;-79
2024/01/04 01:11:49;;;;;;;1999.90;999.90;;;11.40;99.90;;;;;;5036634;28;20123;-75
2024/01/04 01:14:15;;;;;;;1999.90;999.90;;;11.40;99.90;;;;;;5054433;28;20028;-78
2024/01/04 01:16:41;;;;;;;1999.90;999.90;;;11.40;99.90;;;;;;5054261;28;20051;-78
2024/01/04 01:19:07;;;;;;;1999.90;999.90;;;11.40;99.90;;;;;;5054428;28;20031;-79
2024/01/04 01:21:33;;;;;;;1999.90;999.90;;;11.40;99.90;;;;;;5053990;28;20083;-79
2024/01/04 01:23:58;;;;;;;1999.90;999.90;;;11.40;99.90;;;;;;5054115;28;20021;-79
2024/01/04 01:26:24;;;;;;;1999.90;999.90;;;11.30;99.90;;;;;;5050606;28;20025;-78
2024/01/04 01:28:50;;;;;;;1999.90;999.90;;;11.30;99.90;;;;;;5042048;28;20429;-78
2024/01/04 01:31:15;;;;;;;1999.90;999.90;;;11.30;99.90;;;;;;5035652;28;20033;-78
2024/01/04 01:33:44;;;;;;;1999.90;999.90;;;11.30;99.90;;;;;;5054297;28;20480;-78
2024/01/04 01:36:10;;;;;;;1999.90;999.90;;;11.20;99.90;;;;;;5053803;28;20033;-78
2024/01/04 01:38:36;;;;;;;1999.90;999.90;;;11.20;99.90;;;;;;5035913;28;20025;-76
2024/01/04 01:41:01;;;;;;;1999.90;999.90;;;11.20;99.90;;;;;;5015668;28;20168;-78
2024/01/04 01:43:27;;;;;;;1999.90;999.90;;;11.20;99.90;;;;;;5034186;28;20501;-79
2024/01/04 01:45:53;;;;;;;1999.90;999.90;;;11.20;99.90;;;;;;5033943;28;20026;-78
2024/01/04 01:48:19;;;;;;;1999.90;999.90;;;11.10;99.90;;;;;;5033963;28;20100;-79
2024/01/04 01:50:45;;;;;;;1999.90;999.90;;;11.10;99.90;;;;;;5033826;28;20477;-76
2024/01/04 01:53:11;;;;;;;1999.90;999.90;;;11.10;99.90;;;;;;5033775;28;20496;-78
2024/01/04 01:55:37;;;;;;;1999.90;999.90;;;11.10;99.90;;;;;;5033868;28;20484;-79
2024/01/04 01:58:03;;;;;;;1999.90;999.90;;;11.00;99.90;;;;;;5033767;28;20037;-78
2024/01/04 02:00:30;;;;;;;1999.90;999.90;;;11.00;99.90;;;;;;5033466;28;20021;-78
2024/01/04 02:02:57;;;;;;;1999.90;999.90;;;11.00;99.90;;;;;;5048963;28;20040;-78
2024/01/04 02:05:22;;;;;;;1999.90;999.90;;;10.90;99.90;;;;;;5052156;28;20021;-78
2024/01/04 02:07:49;;;;;;;1999.90;999.90;;;10.80;99.90;;;;;;5053539;28;20505;-79
2024/01/04 02:10:14;;;;;;;1999.90;999.90;;;10.80;99.90;;;;;;5053331;28;20032;-78
2024/01/04 02:12:41;;;;;;;1999.90;999.90;;;10.80;99.90;;;;;;5053562;28;20029;-78
2024/01/04 02:15:07;;;;;;;1999.90;999.90;;;10.90;99.90;;;;;;5053196;28;20079;-78
2024/01/04 02:17:34;;;;;;;1999.90;999.90;;;11.00;99.90;;;;;;5053511;28;20035;-78
2024/01/04 02:19:59;;;;;;;1999.90;999.90;;;11.00;99.90;;;;;;5053199;28;20403;-78
2024/01/04 02:22:25;;;;;;;1999.90;999.90;;;11.00;99.90;;;;;;5052998;28;20100;-78
2024/01/04 02:24:51;;;;;;;1999.90;999.90;;;11.00;99.90;;;;;;5053034;28;20028;-78
2024/01/04 02:27:17;;;;;;;1999.90;999.90;;;10.90;99.90;;;;;;5045051;28;20030;-79
2024/01/04 02:29:43;;;;;;;1999.90;999.90;;;10.90;99.90;;;;;;5039338;28;20037;-76
2024/01/04 02:32:09;;;;;;;1999.90;999.90;;;10.90;99.90;;;;;;5041813;28;20423;-78
2024/01/04 02:34:34;;;;;;;1999.90;999.90;;;10.90;99.90;;;;;;5035157;28;20083;-78
2024/01/04 02:37:00;;;;;;;1999.90;999.90;;;10.90;99.90;;;;;;5052297;28;20056;-78
2024/01/04 02:39:26;;;;;;;1999.90;999.90;;;11.00;99.90;;;;;;5052556;28;20103;-79
2024/01/04 02:41:51;;;;;;;1999.90;999.90;;;11.00;99.90;;;;;;5052547;28;20032;-79
2024/01/04 02:44:17;;;;;;;1999.90;999.90;;;11.00;99.90;;;;;;5051661;28;20438;-78
2024/01/04 02:46:43;;;;;;;1999.90;999.90;;;11.10;99.90;;;;;;5034983;28;20021;-78
2024/01/04 02:49:09;;;;;;;1999.90;999.90;;;11.10;99.90;;;;;;5052660;28;20104;-78
2024/01/04 02:51:35;;;;;;;1999.90;999.90;;;11.10;99.90;;;;;;5052724;28;20448;-78
2024/01/04 02:54:01;;;;;;;1999.90;999.90;;;11.10;99.90;;;;;;5034624;28;20431;-78
2024/01/04 02:56:26;;;;;;;1999.90;999.90;;;11.20;99.90;;;;;;5052837;28;20033;-76
2024/01/04 02:58:52;;;;;;;1999.90;999.90;;;11.20;99.90;;;;;;5052620;28;20372;-78
2024/01/04 03:01:19;;;;;;;1999.90;999.90;;;11.30;99.90;;;;;;5052787;28;20029;-79
2024/01/04 03:03:45;;;;;;;1999.90;999.90;;;11.30;99.90;;;;;;5052660;28;20052;-78
2024/01/04 03:06:11;;;;;;;1999.90;999.90;;;11.30;99.90;;;;;;5052252;28;20067;-78
2024/01/04 03:08:36;;;;;;;1999.90;999.90;;;11.40;99.90;;;;;;5052105;28;20025;-79
2024/01/04 03:11:02;;;;;;;1999.90;999.90;;;11.30;99.90;;;;;;5052025;28;20040;-78
2024/01/04 03:13:28;;;;;;;1999.90;999.90;;;11.30;99.90;;;;;;5052651;28;20518;-78
2024/01/04 03:15:53;;;;;;;1999.90;999.90;;;11.30;99.90;;;;;;5052249;28;20523;-78
2024/01/04 03:18:19;;;;;;;1999.90;999.90;;;11.30;99.90;;;;;;5052690;28;20025;-78
2024/01/04 03:20:44;;;;;;;1999.90;999.90;;;11.30;99.90;;;;;;5052312;28;20037;-78
2024/01/04 03:23:10;;;;;;;1999.90;999.90;;;11.20;99.90;;;;;;5052365;28;20626;-78
2024/01/04 03:25:36;;;;;;;1999.90;999.90;;;11.20;99.90;;;;;;5052556;28;20029;-78
2024/01/04 03:28:01;;;;;;;1999.90;999.90;;;11.20;99.90;;;;;;5045049;28;20029;-77
2024/01/04 03:30:27;;;;;;;1999.90;999.90;;;11.10;99.90;;;;;;5015025;28;20034;-78
2024/01/04 03:32:52;;;;;;;1999.90;999.90;;;11.00;99.90;;;;;;5047125;28;20086;-78
2024/01/04 03:35:18;;;;;;;1999.90;999.90;;;11.00;99.90;;;;;;5052674;28;20074;-76
2024/01/04 03:37:44;;;;;;;1999.90;999.90;;;10.90;99.90;;;;;;5052102;28;20029;-78
2024/01/04 03:40:10;;;;;;;1999.90;999.90;;;10.80;99.90;;;;;;5034077;28;20036;-78
2024/01/04 03:42:36;;;;;;;1999.90;999.90;;;10.80;99.90;;;;;;5052260;28;20017;-78
2024/01/04 03:45:02;;;;;;;1999.90;999.90;;;10.80;99.90;;;;;;5052053;28;20018;-78
2024/01/04 03:47:28;;;;;;;1999.90;999.90;;;10.80;99.90;;;;;;5052278;28;20033;-78
2024/01/04 03:49:54;;;;;;;1999.90;999.90;;;10.80;99.90;;;;;;5052215;28;20442;-76
2024/01/04 03:52:19;;;;;;;1999.90;999.90;;;10.80;99.90;;;;;;5052722;28;20025;-78
2024/01/04 03:54:45;;;;;;;1999.90;999.90;;;10.80;99.90;;;;;;5055951;28;20053;-78
2024/01/04 03:57:10;;;;;;;1999.90;999.90;;;10.70;99.90;;;;;;5055919;28;20032;-78
2024/01/04 03:59:37;;;;;;;1999.90;999.90;;;10.70;99.90;;;;;;5055986;28;20028;-78
2024/01/04 04:02:03;;;;;;;1999.90;999.90;;;10.60;99.90;;;;;;5055164;28;20025;-76
2024/01/04 04:04:28;;;;;;;1999.90;999.90;;;10.60;99.90;;;;;;5055838;28;20024;-78
2024/01/04 04:06:54;;;;;;;1999.90;999.90;;;10.50;99.90;;;;;;5055810;28;20567;-78
2024/01/04 04:09:19;;;;;;;1999.90;999.90;;;10.40;99.90;;;;;;5055437;28;20021;-78
2024/01/04 04:11:47;;;;;;;1999.90;999.90;;;10.40;99.90;;;;;;5055711;28;20040;-78
2024/01/04 04:14:13;;;;;;;1999.90;999.90;;;10.40;99.90;;;;;;5055539;28;20024;-78
2024/01/04 04:16:42;;;;;;;1999.90;999.90;;;10.30;99.90;;;;;;5054794;28;20053;-78
2024/01/04 04:19:08;;;;;;;1999.90;999.90;;;10.30;99.90;;;;;;5054052;28;20035;-78
2024/01/04 04:21:34;;;;;;;1999.90;999.90;;;10.20;99.90;;;;;;5055180;28;20033;-78
2024/01/04 04:24:00;;;;;;;1999.90;999.90;;;10.20;99.90;;;;;;5037625;28;20029;-78
2024/01/04 04:26:25;;;;;;;1999.90;999.90;;;10.20;99.90;;;;;;5051780;28;20036;-78
2024/01/04 04:28:51;;;;;;;1999.90;999.90;;;10.10;99.90;;;;;;5044418;28;20021;-78
2024/01/04 04:31:18;;;;;;;1999.90;999.90;;;10.10;99.90;;;;;;5037361;28;20503;-78
2024/01/04 04:33:45;;;;;;;1999.90;999.90;;;10.10;99.90;;;;;;5037408;28;20135;-76
2024/01/04 04:36:11;;;;;;;1999.90;999.90;;;10.00;99.90;;;;;;5037341;28;20044;-76
2024/01/04 04:38:37;;;;;;;1999.90;999.90;;;10.00;99.90;;;;;;5054896;28;20025;-78
2024/01/04 04:41:05;;;;;;;1999.90;999.90;;;10.00;99.90;;;;;;5054786;28;20025;-78
2024/01/04 04:43:31;;;;;;;1999.90;999.90;;;10.10;99.90;;;;;;5037564;28;20472;-78
2024/01/04 04:45:57;;;;;;;1999.90;999.90;;;10.10;99.90;;;;;;5054937;28;20074;-78
2024/01/04 04:48:23;;;;;;;1999.90;999.90;;;10.20;99.90;;;;;;5036068;28;20029;-77
2024/01/04 04:50:50;;;;;;;1999.90;999.90;;;10.20;99.90;;;;;;5054959;28;20028;-78
2024/01/04 04:53:16;;;;;;;1999.90;999.90;;;10.20;99.90;;;;;;5054903;28;20440;-78
2024/01/04 04:55:42;;;;;;;1999.90;999.90;;;10.20;99.90;;;;;;5055275;28;20109;-78
2024/01/04 04:58:08;;;;;;;1999.90;999.90;;;10.20;99.90;;;;;;5054761;28;20086;-78
2024/01/04 05:00:34;;;;;;;1999.90;999.90;;;10.20;99.90;;;;;;5036624;28;20033;-78
2024/01/04 05:02:59;;;;;;;1999.90;999.90;;;10.20;99.90;;;;;;5036512;28;20025;-78
2024/01/04 05:05:25;;;;;;;1999.90;999.90;;;10.20;99.90;;;;;;5055154;28;20392;-78
2024/01/04 05:07:51;;;;;;;1999.90;999.90;;;10.20;99.90;;;;;;5036673;28;20036;-76
2024/01/04 05:10:16;;;;;;;1999.90;999.90;;;10.10;99.90;;;;;;5054352;28;20053;-76
2024/01/04 05:12:42;;;;;;;1999.90;999.90;;;10.20;99.90;;;;;;5054980;28;20112;-77
2024/01/04 05:15:08;;;;;;;1999.90;999.90;;;10.10;99.90;;;;;;5054384;28;20056;-77
2024/01/04 05:17:34;;;;;;;1999.90;999.90;;;10.20;99.90;;;;;;5054692;28;20033;-77
2024/01/04 05:20:00;;;;;;;1999.90;999.90;;;10.20;99.90;;;;;;5054339;28;20025;-77
2024/01/04 05:22:25;;;;;;;1999.90;999.90;;;10.20;99.90;;;;;;5054005;28;20079;-77
2024/01/04 05:24:51;;;;;;;1999.90;999.90;;;10.10;99.90;;;;;;5054215;28;20396;-77
2024/01/04 05:27:17;;;;;;;1999.90;999.90;;;10.10;99.90;;;;;;5046167;28;20104;-77
2024/01/04 05:29:43;;;;;;;1999.90;999.90;;;10.00;99.90;;;;;;5040297;28;20022;-77
2024/01/04 05:32:08;;;;;;;1999.90;999.90;;;9.90;99.90;;;;;;5042924;28;20033;-77
2024/01/04 05:34:36;;;;;;;1999.90;999.90;;;9.90;99.90;;;;;;5053294;28;20483;-76
2024/01/04 05:37:02;;;;;;;1999.90;999.90;;;9.90;99.90;;;;;;5035777;28;20035;-77
2024/01/04 05:39:27;;;;;;;1999.90;999.90;;;9.90;99.90;;;;;;5035582;28;20021;-77
2024/01/04 05:41:53;;;;;;;1999.90;999.90;;;9.90;99.90;;;;;;5054120;28;20025;-77
2024/01/04 05:44:18;;;;;;;1999.90;999.90;;;9.90;99.90;;;;;;5036047;28;20057;-77
2024/01/04 05:46:44;;;;;;;1999.90;999.90;;;9.90;99.90;;;;;;5053840;28;20104;-77
2024/01/04 05:49:10;;;;;;;1999.90;999.90;;;10.00;99.90;;;;;;5053654;28;20028;-77
2024/01/04 05:51:36;;;;;;;1999.90;999.90;;;10.00;99.90;;;;;;5053534;28;20033;-76
2024/01/04 05:54:02;;;;;;;1999.90;999.90;;;10.00;99.90;;;;;;5053968;28;20025;-77
2024/01/04 05:56:28;;;;;;;1999.90;999.90;;;10.20;99.90;;;;;;5052431;28;20131;-78
2024/01/04 05:58:54;;;;;;;1999.90;999.90;;;10.30;99.90;;;;;;5053359;28;20032;-78
2024/01/04 06:01:20;;;;;;;1999.90;999.90;;;10.20;99.90;;;;;;5051569;28;20551;-77
2024/01/04 06:03:45;;;;;;;1999.90;999.90;;;10.20;99.90;;;;;;5053409;28;20024;-77
2024/01/04 06:06:15;;;;;;;1999.90;999.90;;;10.30;99.90;;;;;;5053712;28;20060;-77
2024/01/04 06:08:44;;;;;;;1999.90;999.90;;;10.50;99.90;;;;;;5053365;28;20438;-77
2024/01/04 06:11:10;;;;;;;1999.90;999.90;;;10.50;99.90;;;;;;5051697;28;20067;-76
2024/01/04 06:13:38;;;;;;;1999.90;999.90;;;10.60;99.90;;;;;;5053261;28;20021;-77
2024/01/04 06:16:07;;;;;;;1999.90;999.90;;;10.60;99.90;;;;;;5052624;28;20449;-76
2024/01/04 06:18:34;;;;;;;1999.90;999.90;;;10.60;99.90;;;;;;5052007;28;20040;-78
2024/01/04 06:21:00;;;;;;;1999.90;999.90;;;10.60;99.90;;;;;;5052756;28;20075;-77
2024/01/04 06:23:27;;;;;;;1999.90;999.90;;;10.60;99.90;;;;;;5053401;28;20029;-77
2024/01/04 06:25:53;;;;;;;1999.90;999.90;;;10.60;99.90;;;;;;5050085;28;20029;-77
2024/01/04 06:28:19;;;;;;;1999.90;999.90;;;10.60;99.90;;;;;;5045890;28;20032;-77
2024/01/04 06:30:45;;;;;;;1999.90;999.90;;;10.60;99.90;;;;;;5052175;28;20128;-76
2024/01/04 06:33:11;;;;;;;1999.90;999.90;;;10.70;99.90;;;;;;5059932;28;20072;-76
2024/01/04 06:35:36;;;;;;;1999.90;999.90;;;10.50;99.90;;;;;;5072753;28;20033;-76
2024/01/04 06:38:07;;;;;;;1999.90;999.90;;;10.40;99.90;;;;;;5053753;28;20035;-77
2024/01/04 06:40:40;;;;;;;1999.90;999.90;;;10.30;99.90;;;;;;5052557;28;20480;-77
2024/01/04 06:43:09;;;;;;;1999.90;999.90;;;10.20;99.90;;;;;;5051190;28;20380;-76
2024/01/04 06:45:38;;;;;;;1999.90;999.90;;;10.30;99.90;;;;;;5047474;28;20160;-76
2024/01/04 06:48:07;;;;;;;1999.90;999.90;;;10.20;99.90;;;;;;5041242;28;20488;-76
2024/01/04 06:50:33;;;;;;;1999.90;999.90;;;10.20;99.90;;;;;;5038557;28;20025;-77
2024/01/04 06:52:58;;;;;;;1999.90;999.90;;;10.20;99.90;;;;;;5054212;28;20142;-77
2024/01/04 06:55:24;;;;;;;1999.90;999.90;;;10.20;99.90;;;;;;5060498;28;20033;-77
2024/01/04 06:57:50;;;;;;;1999.90;999.90;;;10.10;99.90;;;;;;5054737;28;20024;-76
2024/01/04 07:00:15;;;;;;;1999.90;999.90;;;10.10;99.90;;;;;;5071421;28;20039;-76
2024/01/04 07:02:41;;;;;;;1999.90;999.90;;;10.10;99.90;;;;;;5071783;28;20107;-78
2024/01/04 07:05:11;;;;;;;1999.90;999.90;;;10.10;99.90;;;;;;5071344;28;20024;-77
2024/01/04 07:07:38;;;;;;;1999.90;999.90;;;10.10;99.90;;;;;;5060077;28;20021;-76
2024/01/04 07:10:04;;;;;;;1999.90;999.90;;;10.10;99.90;;;;;;5035714;28;20029;-76
2024/01/04 07:12:30;;;;;;;1999.90;999.90;;;10.10;99.90;;;;;;5030560;28;20036;-76
2024/01/04 07:14:55;;;;;;;1999.90;999.90;;;10.10;99.90;;;;;;5050859;28;20499;-77
2024/01/04 07:17:23;;;;;;;1999.90;999.90;;;10.20;99.90;;;;;;5049270;28;20454;-78
2024/01/04 07:19:48;;;;;;;1999.90;999.90;;;10.40;99.90;;;;;;5063467;28;20127;-78
2024/01/04 07:22:18;;;;;;;1999.90;999.90;;;10.40;99.90;;;;;;5053294;28;20103;-78
2024/01/04 07:24:44;;;;;;;1999.90;999.90;;;10.40;99.90;;;;;;5030675;28;20025;-77
2024/01/04 07:27:10;;;;;;;1999.90;999.90;;;10.50;99.90;;;;;;5042339;28;20033;-77
2024/01/04 07:29:36;;;;;;;1999.90;999.90;;;10.40;99.90;;;;;;5054563;28;20070;-77
2024/01/04 07:32:02;;;;;;;1999.90;999.90;;;10.20;99.90;;;;;;5036364;28;20017;-77
2024/01/04 07:34:28;;;;;;;1999.90;999.90;;;10.00;99.90;;;;;;5054816;28;20506;-77
2024/01/04 07:36:53;;;;;;;1999.90;999.90;;;9.90;99.90;;;;;;5052634;28;20021;-76
2024/01/04 07:39:19;;;;;;;1999.90;999.90;;;9.90;99.90;;;;;;5053419;28;20857;-75
2024/01/04 07:41:45;;;;;;;1999.90;999.90;;;9.90;99.90;;;;;;5054593;28;20040;-78
2024/01/04 07:44:11;;;;;;;1999.90;999.90;;;9.90;99.90;;;;;;5065711;28;20112;-78
2024/01/04 07:46:37;;;;;;;1999.90;999.90;;;9.90;99.90;;;;;;5050351;28;20112;-77
2024/01/04 07:49:10;;;;;;;1999.90;999.90;;;9.90;99.90;;;;;;5048399;28;20022;-75
2024/01/04 07:51:37;;;;;;;1999.90;999.90;;;9.80;99.90;;;;;;5054094;28;20051;-78
2024/01/04 07:54:02;;;;;;;1999.90;999.90;;;9.70;99.90;;;;;;5053987;28;20029;-78
2024/01/04 07:56:28;;;;;;;1999.90;999.90;;;9.70;99.90;;;;;;5053817;28;20045;-78
2024/01/04 07:58:53;;;;;;;1999.90;999.90;;;9.70;99.90;;;;;;5059706;28;20024;-78
2024/01/04 08:01:19;;;;;;;1999.90;999.90;;;9.70;99.90;;;;;;5055127;28;20039;-78
2024/01/04 08:03:45;;;;;;;1999.90;999.90;;;9.70;99.90;;;;;;5072683;28;20028;-78
2024/01/04 08:06:10;;;;;;;1999.90;999.90;;;9.60;99.90;;;;;;5057860;28;20069;-78
2024/01/04 08:08:36;;;;;;;1999.90;999.90;;;9.80;99.90;;;;;;5038589;28;20117;-78
2024/01/04 08:11:02;;;;;;;1999.90;999.90;;;9.90;99.90;;;;;;5052469;28;20021;-75
2024/01/04 08:13:28;;;;;;;1999.90;999.90;;;10.00;99.90;;;;;;5054579;28;20518;-77
2024/01/04 08:15:54;;;;;;;1999.90;999.90;;;10.10;99.90;;;;;;5053154;28;20049;-75
2024/01/04 08:18:22;;;;;;;1999.90;999.90;;;10.10;99.90;;;;;;5052632;28;20079;-75
2024/01/04 08:20:48;;;;;;;1999.90;999.90;;;10.20;99.90;;;;;;5052704;28;20545;-79
2024/01/04 08:23:14;;;;;;;1999.90;999.90;;;10.30;99.90;;;;;;5052728;28;20029;-75
2024/01/04 08:25:41;;;;;;;1999.90;999.90;;;10.40;99.90;;;;;;5053523;28;20029;-78
2024/01/04 08:28:06;;;;;;;1999.90;999.90;;;10.50;99.90;;;;;;5045812;28;20025;-78
2024/01/04 08:30:32;;;;;;;1999.90;999.90;;;10.60;99.90;;;;;;5047501;28;20461;-76
2024/01/04 08:32:58;;;;;;;1999.90;999.90;;;10.70;99.90;;;;;;5048049;28;20471;-78
2024/01/04 08:35:24;;;;;;;1999.90;999.90;;;10.70;99.90;;;;;;5052842;28;20029;-77
2024/01/04 08:37:50;;;;;;;1999.90;999.90;;;10.70;99.90;;;;;;5052587;28;20391;-76
2024/01/04 08:40:15;;;;;;;1999.90;999.90;;;10.80;99.90;;;;;;5051914;28;20044;-75
2024/01/04 08:42:41;;;;;;;1999.90;999.90;;;10.80;99.90;;;;;;5051920;28;20043;-75
2024/01/04 08:45:08;;;;;;;1999.90;999.90;;;10.90;99.90;;;;;;5052116;28;20033;-75
2024/01/04 08:47:35;;;;;;;1999.90;999.90;;;11.00;99.90;;;;;;5051397;28;20033;-78
2024/01/04 08:50:01;;;;;;;1999.90;999.90;;;11.10;99.90;;;;;;5051831;28;20036;-78
2024/01/04 08:52:27;;;;;;;1999.90;999.90;;;11.20;99.90;;;;;;5052896;28;20036;-76
2024/01/04 08:54:53;;;;;;;1999.90;999.90;;;11.40;99.90;;;;;;5051475;28;20040;-78
2024/01/04 08:57:19;;;;;;;1999.90;999.90;;;11.40;99.90;;;;;;5052219;28;20029;-75
2024/01/04 08:59:44;;;;;;;1999.90;999.90;;;11.40;99.90;;;;;;5051008;28;20036;-75
2024/01/04 09:02:10;;;;;;;1999.90;999.90;;;11.50;99.90;;;;;;5044022;28;20029;-78
2024/01/04 09:04:36;;;;;;;1999.90;999.90;;;11.50;99.90;;;;;;5051947;28;20446;-77
2024/01/04 09:07:01;;;;;;;1999.90;999.90;;;11.60;99.90;;;;;;5034226;28;20029;-77
2024/01/04 09:09:27;;;;;;;1999.90;999.90;;;11.50;99.90;;;;;;5049487;28;20037;-75
2024/01/04 09:11:53;;;;;;;1999.90;999.90;;;11.60;99.90;;;;;;5031544;28;20083;-79
2024/01/04 09:14:18;;;;;;;1999.90;999.90;;;11.60;99.90;;;;;;5044896;28;20090;-75
2024/01/04 09:16:44;;;;;;;1999.90;999.90;;;11.60;99.90;;;;;;5043587;28;20045;-78
2024/01/04 09:19:17;;;;;;;1999.90;999.90;;;11.60;99.90;;;;;;5048501;28;20554;-78
2024/01/04 09:21:44;;;;;;;1999.90;999.90;;;11.60;99.90;;;;;;5051792;28;20025;-75
2024/01/04 09:24:12;;;;;;;1999.90;999.90;;;11.60;99.90;;;;;;5040945;28;20057;-75
2024/01/04 09:26:42;;;;;;;1999.90;999.90;;;11.60;99.90;;;;;;5025603;28;20029;-78
2024/01/04 09:29:08;;;;;;;1999.90;999.90;;;11.60;99.90;;;;;;5055360;28;20075;-79
2024/01/04 09:31:34;;;;;;;1999.90;999.90;;;11.50;99.90;;;;;;5052306;28;20024;-75
2024/01/04 09:34:00;;;;;;;1999.90;999.90;;;11.50;99.90;;;;;;5051979;28;20039;-74
2024/01/04 09:36:26;;;;;;;1999.90;999.90;;;11.50;99.90;;;;;;5051938;28;20021;-77
2024/01/04 09:38:51;;;;;;;1999.90;999.90;;;11.50;99.90;;;;;;5048070;28;20550;-77
2024/01/04 09:41:26;;;;;;;1999.90;999.90;;;11.60;99.90;;;;;;5047044;28;20030;-74
2024/01/04 09:43:55;;;;;;;1999.90;999.90;;;11.60;99.90;;;;;;5027330;28;20451;-75
2024/01/04 09:46:23;;;;;;;1999.90;999.90;;;11.60;99.90;;;;;;5052939;28;20086;-78
2024/01/04 09:48:58;;;;;;;1999.90;999.90;;;11.50;99.90;;;;;;5065595;28;20024;-79
2024/01/04 09:51:26;;;;;;;1999.90;999.90;;;11.50;99.90;;;;;;5047038;28;20510;-78
2024/01/04 09:53:53;;;;;;;1999.90;999.90;;;11.50;99.90;;;;;;5046529;28;20499;-78
2024/01/04 09:56:24;;;;;;;1999.90;999.90;;;11.50;99.90;;;;;;5050226;28;20022;-75
2024/01/04 09:58:50;;;;;;;1999.90;999.90;;;11.50;99.90;;;;;;5060641;28;20479;-75
2024/01/04 10:01:35;;;;;;;1999.90;999.90;;;11.60;99.90;;;;;;5049957;28;20074;-75
2024/01/04 10:04:11;;;;;;;1999.90;999.90;;;11.70;99.90;;;;;;5052358;28;20175;-78
2024/01/04 10:06:39;;;;;;;1999.90;999.90;;;11.80;99.90;;;;;;5045285;28;20034;-78
2024/01/04 10:09:07;;;;;;;1999.90;999.90;;;12.00;99.90;;;;;;5048005;28;20028;-78
2024/01/04 10:11:41;;;;;;;1999.90;999.90;;;12.30;99.90;;;;;;5046641;28;20075;-75
2024/01/04 10:14:07;;;;;;;1999.90;999.90;;;12.20;99.90;;;;;;5051681;28;20422;-75
2024/01/04 10:16:33;;;;;;;1999.90;999.90;;;12.20;99.90;;;;;;5050085;28;20057;-75
2024/01/04 10:19:00;;;;;;;1999.90;999.90;;;12.10;99.90;;;;;;5066592;28;20036;-75
2024/01/04 10:21:34;;;;;;;1999.90;999.90;;;12.10;99.90;;;;;;5056824;28;20584;-75
2024/01/04 10:24:01;;;;;;;1999.90;999.90;;;12.10;99.90;;;;;;5063912;28;20032;-75
2024/01/04 10:26:27;;;;;;;1999.90;999.90;;;12.10;99.90;;;;;;5052984;28;20047;-75
2024/01/04 10:28:59;;;;;;;1999.90;999.90;;;12.30;99.90;;;;;;5046068;28;20033;-75
2024/01/04 10:31:26;;;;;;;1999.90;999.90;;;12.50;99.90;;;;;;5056520;28;20090;-78
2024/01/04 10:33:56;;;;;;;1999.90;999.90;;;12.60;99.90;;;;;;5059391;28;20035;-76
2024/01/04 10:36:22;;;;;;;1999.90;999.90;;;12.60;99.90;;;;;;5056724;28;20033;-75
2024/01/04 10:38:48;;;;;;;1999.90;999.90;;;12.50;99.90;;;;;;5064938;28;20051;-75
2024/01/04 10:41:17;;;;;;;1999.90;999.90;;;12.50;99.90;;;;;;5047504;28;20056;-75
2024/01/04 10:43:43;;;;;;;1999.90;999.90;;;12.60;99.90;;;;;;5059840;28;20017;-78
2024/01/04 10:46:10;;;;;;;1999.90;999.90;;;12.60;99.90;;;;;;5046453;28;20484;-78
2024/01/04 10:48:37;;;;;;;1999.90;999.90;;;12.70;99.90;;;;;;5043375;28;20570;-77
2024/01/04 10:51:04;;;;;;;1999.90;999.90;;;12.70;99.90;;;;;;5055975;28;20513;-75
2024/01/04 10:53:38;;;;;;;1999.90;999.90;;;12.80;99.90;;;;;;5040339;28;20029;-75
2024/01/04 10:56:04;;;;;;;1999.90;999.90;;;12.80;99.90;;;;;;5054981;28;20491;-78
2024/01/04 10:58:35;;;;;;;1999.90;999.90;;;12.80;99.90;;;;;;5045698;28;20086;-77
2024/01/04 11:01:03;;;;;;;1999.90;999.90;;;13.10;99.90;;;;;;5030401;28;20025;-75
2024/01/04 11:03:31;;;;;;;1999.90;999.90;;;13.20;99.90;;;;;;5049903;28;20024;-75
2024/01/04 11:06:02;;;;;;;1999.90;999.90;;;13.30;99.90;;;;;;5052055;28;20467;-79
2024/01/04 11:08:29;;;;;;;1999.90;999.90;;;13.40;99.90;;;;;;5042966;28;20088;-75
2024/01/04 11:10:57;;;;;;;1999.90;999.90;;;13.50;99.90;;;;;;5057661;28;20033;-79
2024/01/04 11:13:22;;;;;;;1999.90;999.90;;;13.60;99.90;;;;;;5054657;28;20133;-79
2024/01/04 11:15:54;;;;;;;1999.90;999.90;;;13.60;99.90;;;;;;5047421;28;20489;-77
2024/01/04 11:18:20;;;;;;;1999.90;999.90;;;13.40;99.90;;;;;;5050603;28;20100;-75
2024/01/04 11:21:21;;;;;;;1999.90;999.90;;;13.30;99.90;;;;;;5049613;28;20162;-76
2024/01/04 11:23:50;;;;;;;1999.90;999.90;;;13.40;99.90;;;;;;5049453;28;20016;-78
2024/01/04 11:26:34;;;;;;;1999.90;999.90;;;13.60;99.90;;;;;;5053630;28;20059;-78
2024/01/04 11:29:06;;;;;;;1999.90;999.90;;;13.70;99.90;;;;;;5043590;28;20072;-75
2024/01/04 11:31:32;;;;;;;1999.90;999.90;;;13.70;99.90;;;;;;5044081;28;20039;-75
2024/01/04 11:34:03;;;;;;;1999.90;999.90;;;13.70;99.90;;;;;;5046746;28;20107;-79
2024/01/04 11:36:29;;;;;;;1999.90;999.90;;;13.50;99.90;;;;;;5046790;28;20040;-75
2024/01/04 11:38:57;;;;;;;1999.90;999.90;;;13.60;99.90;;;;;;5036263;28;20029;-76
2024/01/04 11:41:36;;;;;;;1999.90;999.90;;;13.50;99.90;;;;;;5023183;28;20037;-75
2024/01/04 11:44:03;;;;;;;1999.90;999.90;;;13.70;99.90;;;;;;5045002;28;20036;-79
2024/01/04 11:46:29;;;;;;;1999.90;999.90;;;13.70;99.90;;;;;;5049377;28;20118;-75
2024/01/04 11:49:04;;;;;;;1999.90;999.90;;;13.80;99.90;;;;;;5051279;28;20032;-75
2024/01/04 11:51:50;;;;;;;1999.90;999.90;;;13.70;99.90;;;;;;5054932;28;20033;-78
2024/01/04 11:54:20;;;;;;;1999.90;999.90;;;13.40;99.90;;;;;;5047391;28;20578;-75
2024/01/04 11:56:47;;;;;;;1999.90;999.90;;;13.40;99.90;;;;;;5027111;28;20040;-79